Time;durP1;ratioP1;P1;durP2;ratioP2;P2;SDS_P1;SDS_P2;PMS_P1;PMS_P2;Temp;Humidity;BMP_temperature;BMP_pressure;BME280_temperature;BME280_humidity;BME280_pressure;Samples;Min_cycle;Max_cycle;Signal;HPM_P1;HPM_P2
2021/10/18 00:02:07;;;;;;;12.15;7.60;;;;;;;11.58;80.42;102249.19;5034688;28;20044;-72
2021/10/18 00:04:33;;;;;;;13.95;8.18;;;;;;;11.55;80.77;102246.44;5034485;28;20119;-73
2021/10/18 00:06:58;;;;;;;11.00;7.90;;;;;;;11.54;80.78;102248.19;5034537;28;20417;-73
2021/10/18 00:09:23;;;;;;;18.40;9.68;;;;;;;11.53;80.93;102262.22;5034524;28;20068;-72
2021/10/18 00:11:48;;;;;;;15.70;8.55;;;;;;;11.50;81.06;102262.09;5034255;28;20056;-71
2021/10/18 00:14:14;;;;;;;14.63;8.55;;;;;;;11.48;80.95;102259.41;5034005;28;20029;-73
2021/10/18 00:16:39;;;;;;;14.48;8.07;;;;;;;11.47;80.87;102264.63;5034150;28;20032;-72
2021/10/18 00:19:06;;;;;;;13.68;8.63;;;;;;;11.46;81.29;102263.75;5034091;28;20021;-72
2021/10/18 00:21:32;;;;;;;15.90;8.18;;;;;;;11.46;80.81;102261.09;5034063;28;20029;-72
2021/10/18 00:23:57;;;;;;;17.08;8.32;;;;;;;11.49;80.67;102265.59;5033810;28;20124;-72
2021/10/18 00:26:22;;;;;;;16.38;8.95;;;;;;;11.49;80.41;102265.59;5034015;28;20033;-72
2021/10/18 00:28:48;;;;;;;16.17;9.25;;;;;;;11.51;80.41;102268.28;5033950;28;20054;-73
2021/10/18 00:31:13;;;;;;;12.40;8.25;;;;;;;11.50;80.75;102271.75;5033789;28;20107;-72
2021/10/18 00:33:38;;;;;;;14.10;8.73;;;;;;;11.48;80.47;102264.69;5033454;28;20417;-72
2021/10/18 00:36:04;;;;;;;14.90;8.73;;;;;;;11.48;80.66;102259.41;5032151;28;20493;-72
2021/10/18 00:38:29;;;;;;;17.67;8.70;;;;;;;11.45;80.34;102263.69;5033645;28;20053;-72
2021/10/18 00:40:55;;;;;;;12.52;8.55;;;;;;;11.46;80.79;102269.00;5033534;28;20025;-72
2021/10/18 00:43:20;;;;;;;15.23;7.97;;;;;;;11.45;80.25;102275.13;5032268;28;20091;-72
2021/10/18 00:45:45;;;;;;;12.65;8.45;;;;;;;11.43;80.60;102266.25;5033532;28;20158;-73
2021/10/18 00:48:11;;;;;;;15.27;8.63;;;;;;;11.43;80.64;102271.50;5033562;28;20026;-73
2021/10/18 00:50:36;;;;;;;13.77;8.48;;;;;;;11.45;80.31;102277.75;5032259;28;20057;-73
2021/10/18 00:53:02;;;;;;;11.77;7.82;;;;;;;11.43;80.61;102271.50;5026294;28;20029;-73
2021/10/18 00:55:28;;;;;;;11.85;8.32;;;;;;;11.43;80.38;102270.63;5013598;28;20030;-72
2021/10/18 00:57:54;;;;;;;10.80;8.10;;;;;;;11.39;80.65;102274.00;5013692;28;20026;-72
2021/10/18 01:00:20;;;;;;;13.27;8.52;;;;;;;11.36;80.77;102261.59;5013653;28;20041;-72
2021/10/18 01:02:45;;;;;;;16.55;8.88;;;;;;;11.36;80.70;102261.59;5013583;28;20080;-72
2021/10/18 01:05:11;;;;;;;17.58;7.95;;;;;;;11.36;81.06;102266.88;5013683;28;20079;-72
2021/10/18 01:07:36;;;;;;;17.02;8.45;;;;;;;11.33;80.50;102258.88;5013920;28;20034;-73
2021/10/18 01:10:03;;;;;;;13.32;8.45;;;;;;;11.31;80.70;102255.25;5014134;28;20030;-72
2021/10/18 01:12:28;;;;;;;13.68;8.60;;;;;;;11.28;80.22;102255.16;5012479;28;20440;-72
2021/10/18 01:14:54;;;;;;;15.85;8.60;;;;;;;11.31;80.07;102265.81;5014039;28;20037;-72
2021/10/18 01:17:19;;;;;;;16.33;8.63;;;;;;;11.32;79.75;102262.34;5013845;28;20022;-73
2021/10/18 01:19:44;;;;;;;15.60;8.40;;;;;;;11.27;80.06;102258.63;5013956;28;20025;-73
2021/10/18 01:22:10;;;;;;;13.60;8.35;;;;;;;11.22;80.43;102263.75;5013520;28;20022;-72
2021/10/18 01:24:36;;;;;;;18.25;8.07;;;;;;;11.20;80.36;102252.22;5013227;28;20093;-72
2021/10/18 01:27:03;;;;;;;17.98;8.35;;;;;;;11.18;80.44;102248.66;5012159;28;20029;-71
2021/10/18 01:29:34;;;;;;;13.52;7.82;;;;;;;11.18;80.62;102248.66;5013284;28;20053;-72
2021/10/18 01:32:00;;;;;;;13.25;8.73;;;;;;;11.16;81.00;102250.31;5013460;28;20437;-72
2021/10/18 01:34:27;;;;;;;15.38;7.82;;;;;;;11.14;80.79;102250.28;5013407;28;20060;-72
2021/10/18 01:36:55;;;;;;;12.55;7.72;;;;;;;11.13;81.38;102248.47;5013147;28;20330;-72
2021/10/18 01:39:21;;;;;;;15.65;8.15;;;;;;;11.09;81.44;102243.94;5012887;28;20495;-72
2021/10/18 01:41:46;;;;;;;11.02;7.68;;;;;;;11.06;82.22;102249.09;5013064;28;20049;-72
2021/10/18 01:44:12;;;;;;;16.52;8.50;;;;;;;11.03;82.01;102237.53;5012929;28;20049;-72
2021/10/18 01:46:37;;;;;;;10.68;7.75;;;;;;;10.99;82.31;102233.91;5013004;28;20057;-72
2021/10/18 01:49:02;;;;;;;13.52;7.70;;;;;;;10.95;82.53;102224.09;5016978;28;20369;-72
2021/10/18 01:51:28;;;;;;;12.95;8.10;;;;;;;10.86;83.28;102227.28;5015627;28;20057;-72
2021/10/18 01:53:53;;;;;;;13.95;8.40;;;;;;;10.83;83.60;102235.06;5030464;28;20395;-72
2021/10/18 01:56:18;;;;;;;15.95;8.98;;;;;;;10.79;83.58;102230.53;5036588;28;20022;-72
2021/10/18 01:58:44;;;;;;;12.98;8.07;;;;;;;10.75;83.87;102242.66;5036693;28;20063;-72
2021/10/18 02:01:12;;;;;;;8.85;7.55;;;;;;;10.72;83.86;102232.03;5035240;28;20124;-72
2021/10/18 02:03:37;;;;;;;16.17;8.70;;;;;;;10.70;83.91;102236.34;5035251;28;20021;-72
2021/10/18 02:06:03;;;;;;;11.77;8.82;;;;;;;10.66;84.26;102241.41;5036457;28;20030;-72
2021/10/18 02:08:28;;;;;;;15.00;9.27;;;;;;;10.62;83.79;102245.66;5036318;28;20036;-72
2021/10/18 02:10:54;;;;;;;13.77;8.95;;;;;;;10.59;84.35;102240.28;5036313;28;20056;-72
2021/10/18 02:13:19;;;;;;;15.23;8.23;;;;;;;10.55;84.23;102238.38;5034898;28;20102;-72
2021/10/18 02:15:44;;;;;;;14.07;9.35;;;;;;;10.50;84.67;102239.91;5036223;28;20033;-73
2021/10/18 02:18:10;;;;;;;13.73;8.30;;;;;;;10.48;84.68;102236.34;5036234;28;20040;-73
2021/10/18 02:20:35;;;;;;;17.15;8.77;;;;;;;10.42;84.52;102232.63;5036180;28;20087;-73
2021/10/18 02:23:00;;;;;;;18.48;9.43;;;;;;;10.37;84.94;102228.91;5035948;28;20022;-73
2021/10/18 02:25:26;;;;;;;12.07;8.93;;;;;;;10.33;84.83;102229.59;5036009;28;20048;-73
2021/10/18 02:27:51;;;;;;;14.77;9.50;;;;;;;10.28;85.26;102229.44;5035860;28;20126;-73
2021/10/18 02:30:16;;;;;;;19.70;9.38;;;;;;;10.23;85.44;102224.81;5035918;28;20092;-73
2021/10/18 02:32:42;;;;;;;13.13;9.60;;;;;;;10.19;85.29;102228.16;5035907;28;20473;-73
2021/10/18 02:35:10;;;;;;;14.70;10.30;;;;;;;10.16;85.50;102228.94;5035739;28;20029;-73
2021/10/18 02:37:36;;;;;;;13.70;9.68;;;;;;;10.12;85.82;102221.75;5035815;28;20029;-73
2021/10/18 02:40:02;;;;;;;18.13;9.73;;;;;;;10.07;86.23;102218.91;5035789;28;20500;-73
2021/10/18 02:42:27;;;;;;;14.02;10.18;;;;;;;10.02;86.38;102228.34;5034808;28;20032;-73
2021/10/18 02:44:52;;;;;;;19.90;9.65;;;;;;;9.99;86.25;102220.34;5035892;28;20079;-71
2021/10/18 02:47:18;;;;;;;17.05;10.48;;;;;;;9.94;86.78;102217.53;5035892;28;20377;-72
2021/10/18 02:49:43;;;;;;;17.42;10.77;;;;;;;9.91;86.60;102221.75;5035778;28;20072;-73
2021/10/18 02:52:08;;;;;;;18.33;10.68;;;;;;;9.87;87.53;102219.84;5035574;28;20434;-73
2021/10/18 02:54:35;;;;;;;15.68;10.77;;;;;;;9.82;87.67;102221.38;5016367;28;20454;-73
2021/10/18 02:57:01;;;;;;;21.67;11.68;;;;;;;9.78;87.69;102218.63;5015430;28;20018;-72
2021/10/18 02:59:26;;;;;;;17.38;11.07;;;;;;;9.74;88.08;102223.66;5015871;28;20362;-72
2021/10/18 03:01:51;;;;;;;17.15;10.90;;;;;;;9.70;88.65;102233.19;5015854;28;20032;-72
2021/10/18 03:04:17;;;;;;;19.90;11.75;;;;;;;9.66;89.09;102231.25;5015831;28;20072;-73
2021/10/18 03:06:42;;;;;;;19.75;11.40;;;;;;;9.62;89.32;102235.47;5014466;28;20046;-72
2021/10/18 03:09:07;;;;;;;19.80;11.73;;;;;;;9.61;89.91;102240.66;5014823;28;20127;-72
2021/10/18 03:11:33;;;;;;;17.13;10.75;;;;;;;9.55;89.75;102237.75;5015721;28;20058;-72
2021/10/18 03:13:58;;;;;;;16.48;11.63;;;;;;;9.51;90.28;102239.38;5014309;28;20030;-73
2021/10/18 03:16:23;;;;;;;19.60;11.73;;;;;;;9.48;90.83;102240.94;5015674;28;20042;-73
2021/10/18 03:18:49;;;;;;;17.42;11.52;;;;;;;9.45;90.77;102233.84;5015661;28;20041;-73
2021/10/18 03:21:14;;;;;;;20.80;11.88;;;;;;;9.42;90.82;102238.97;5015521;28;20038;-71
2021/10/18 03:23:39;;;;;;;23.65;13.38;;;;;;;9.40;91.38;102237.97;5014218;28;20030;-72
2021/10/18 03:26:05;;;;;;;19.67;12.88;;;;;;;9.37;91.14;102238.78;5015367;28;20056;-72
2021/10/18 03:28:30;;;;;;;18.65;12.27;;;;;;;9.35;91.78;102235.16;5014548;28;20177;-72
2021/10/18 03:30:55;;;;;;;24.33;13.20;;;;;;;9.32;91.49;102231.50;5015190;28;20042;-72
2021/10/18 03:33:21;;;;;;;19.60;12.45;;;;;;;9.28;91.65;102238.38;5015267;28;20030;-73
2021/10/18 03:35:46;;;;;;;17.83;12.98;;;;;;;9.22;91.61;102228.47;5013916;28;20029;-72
2021/10/18 03:38:12;;;;;;;22.70;13.20;;;;;;;9.20;91.60;102234.50;5015177;28;20033;-72
2021/10/18 03:40:37;;;;;;;22.27;13.35;;;;;;;9.17;91.74;102229.09;5015011;28;20033;-72
2021/10/18 03:43:03;;;;;;;20.45;14.10;;;;;;;9.15;91.96;102230.75;5015008;28;20101;-72
2021/10/18 03:45:28;;;;;;;20.42;13.43;;;;;;;9.12;91.61;102231.53;5015064;28;20473;-72
2021/10/18 03:47:53;;;;;;;23.95;14.48;;;;;;;9.11;91.85;102230.63;5013737;28;20021;-73
2021/10/18 03:50:19;;;;;;;24.92;14.65;;;;;;;9.11;91.86;102232.34;5014973;28;20022;-73
2021/10/18 03:52:44;;;;;;;20.15;13.77;;;;;;;9.09;91.68;102231.41;5019178;28;20474;-72
2021/10/18 03:55:10;;;;;;;26.27;14.00;;;;;;;9.08;91.74;102233.09;5034433;28;20033;-72
2021/10/18 03:57:36;;;;;;;23.40;14.70;;;;;;;9.06;91.48;102232.16;5034424;28;20112;-73
2021/10/18 04:00:04;;;;;;;23.50;14.27;;;;;;;9.07;91.39;102238.28;5034399;28;20069;-73
2021/10/18 04:02:29;;;;;;;23.23;14.27;;;;;;;9.06;91.81;102236.47;5034204;28;20021;-72
2021/10/18 04:04:55;;;;;;;26.52;14.02;;;;;;;9.06;91.32;102242.66;5034219;28;20428;-72
2021/10/18 04:07:20;;;;;;;24.67;15.27;;;;;;;9.05;91.83;102243.47;5032894;28;20542;-72
2021/10/18 04:09:46;;;;;;;21.77;13.63;;;;;;;9.06;91.30;102241.72;5033174;28;20050;-72
2021/10/18 04:12:12;;;;;;;23.15;14.38;;;;;;;9.05;90.87;102235.59;5034089;28;20018;-73
2021/10/18 04:14:37;;;;;;;26.10;14.35;;;;;;;9.04;91.29;102246.91;5034043;28;20164;-74
2021/10/18 04:17:03;;;;;;;24.08;14.45;;;;;;;9.04;91.11;102236.41;5034083;28;20426;-71
2021/10/18 04:19:28;;;;;;;25.73;14.40;;;;;;;9.04;91.29;102227.66;5033924;28;20029;-72
2021/10/18 04:21:53;;;;;;;29.67;15.10;;;;;;;9.04;90.42;102219.78;5032670;28;20072;-72
2021/10/18 04:24:19;;;;;;;27.25;15.07;;;;;;;9.02;90.92;102224.97;5033725;28;20486;-73
2021/10/18 04:26:44;;;;;;;23.90;15.07;;;;;;;9.00;91.20;102229.22;5032485;28;20029;-72
2021/10/18 04:29:10;;;;;;;22.58;14.85;;;;;;;9.00;91.42;102228.34;5033900;28;20025;-72
2021/10/18 04:31:35;;;;;;;22.35;14.93;;;;;;;8.98;91.28;102223.03;5033745;28;20021;-73
2021/10/18 04:34:01;;;;;;;22.25;14.98;;;;;;;8.95;91.25;102233.38;5033748;28;20048;-71
2021/10/18 04:36:27;;;;;;;25.88;14.98;;;;;;;8.95;92.13;102238.63;5032471;28;20053;-72
2021/10/18 04:38:52;;;;;;;23.90;15.48;;;;;;;8.94;91.85;102236.84;5033583;28;20512;-71
2021/10/18 04:41:18;;;;;;;26.05;16.20;;;;;;;8.90;92.17;102241.03;5032404;28;20033;-72
2021/10/18 04:43:44;;;;;;;25.88;15.68;;;;;;;8.90;92.71;102246.31;5032317;28;20143;-73
2021/10/18 04:46:09;;;;;;;25.45;16.45;;;;;;;8.89;92.56;102248.84;5033497;28;20485;-72
2021/10/18 04:48:34;;;;;;;27.83;15.45;;;;;;;8.87;92.64;102247.88;5032179;28;20075;-72
2021/10/18 04:51:00;;;;;;;24.35;16.77;;;;;;;8.86;92.83;102253.97;5032436;28;20116;-73
2021/10/18 04:53:25;;;;;;;24.50;15.43;;;;;;;8.83;92.44;102253.81;5021865;28;20466;-71
2021/10/18 04:55:50;;;;;;;22.80;16.10;;;;;;;8.84;92.40;102258.25;5013745;28;20508;-71
2021/10/18 04:58:16;;;;;;;24.27;15.32;;;;;;;8.81;92.59;102259.00;5013652;28;20021;-72
2021/10/18 05:00:47;;;;;;;26.02;16.40;;;;;;;8.81;93.06;102266.88;5013654;28;20065;-72
2021/10/18 05:03:12;;;;;;;24.08;16.45;;;;;;;8.79;92.87;102255.41;5013565;28;20022;-73
2021/10/18 05:05:39;;;;;;;26.50;17.08;;;;;;;8.78;92.36;102254.50;5013554;28;20182;-73
2021/10/18 05:08:10;;;;;;;25.83;16.42;;;;;;;8.78;92.69;102254.50;5012236;28;20018;-73
2021/10/18 05:10:37;;;;;;;25.80;17.27;;;;;;;8.76;92.71;102257.88;5013365;28;20044;-73
2021/10/18 05:13:03;;;;;;;29.88;16.98;;;;;;;8.74;93.20;102249.94;5013333;28;20474;-72
2021/10/18 05:15:29;;;;;;;23.55;16.20;;;;;;;8.74;92.66;102255.19;5013198;28;20028;-72
2021/10/18 05:17:55;;;;;;;26.95;16.10;;;;;;;8.74;93.07;102252.56;5013246;28;20034;-72
2021/10/18 05:20:20;;;;;;;24.33;16.65;;;;;;;8.72;92.90;102251.59;5013037;28;20048;-72
2021/10/18 05:22:46;;;;;;;23.08;15.20;;;;;;;8.72;92.89;102259.47;5013311;28;20470;-72
2021/10/18 05:25:11;;;;;;;29.27;17.55;;;;;;;8.72;93.96;102269.97;5013254;28;20476;-73
2021/10/18 05:27:37;;;;;;;39.25;17.73;;;;;;;8.71;93.28;102273.41;5013483;28;20370;-73
2021/10/18 05:30:08;;;;;;;30.35;17.65;;;;;;;8.71;93.41;102272.53;5013307;28;20061;-73
2021/10/18 05:32:34;;;;;;;29.58;17.95;;;;;;;8.70;93.51;102276.84;5011845;28;20080;-72
2021/10/18 05:34:59;;;;;;;31.00;18.50;;;;;;;8.69;93.09;102277.69;5011970;28;20470;-72
2021/10/18 05:37:24;;;;;;;33.50;17.75;;;;;;;8.69;92.60;102271.53;5013284;28;20018;-72
2021/10/18 05:39:50;;;;;;;26.15;17.35;;;;;;;8.70;92.43;102257.59;5013256;28;20084;-72
2021/10/18 05:42:15;;;;;;;31.77;17.80;;;;;;;8.71;92.46;102259.41;5011908;28;20042;-72
2021/10/18 05:44:41;;;;;;;27.90;17.42;;;;;;;8.71;92.65;102256.78;5013085;28;20030;-73
2021/10/18 05:47:06;;;;;;;28.60;17.75;;;;;;;8.69;92.55;102253.19;5012859;28;20038;-73
2021/10/18 05:49:32;;;;;;;28.73;17.75;;;;;;;8.70;92.85;102253.25;5013041;28;20029;-71
2021/10/18 05:51:57;;;;;;;27.98;19.35;;;;;;;8.70;92.70;102253.25;5011724;28;20053;-73
2021/10/18 05:54:22;;;;;;;30.40;18.45;;;;;;;8.69;92.52;102250.56;5030584;28;20029;-72
2021/10/18 05:56:49;;;;;;;29.20;18.13;;;;;;;8.69;92.61;102258.41;5031415;28;20033;-72
2021/10/18 05:59:16;;;;;;;28.98;17.83;;;;;;;8.69;92.99;102261.03;5032707;28;20029;-72
2021/10/18 06:01:42;;;;;;;26.92;17.83;;;;;;;8.70;92.77;102252.34;5031445;28;20045;-73
2021/10/18 06:04:07;;;;;;;28.60;18.48;;;;;;;8.70;92.63;102254.97;5032653;28;20075;-72
2021/10/18 06:06:34;;;;;;;25.50;17.05;;;;;;;8.69;92.74;102248.81;5032665;28;20492;-72
2021/10/18 06:09:00;;;;;;;28.83;17.98;;;;;;;8.68;93.04;102249.66;5032552;28;20022;-72
2021/10/18 06:11:25;;;;;;;30.90;17.35;;;;;;;8.68;93.17;102252.28;5032633;28;20378;-72
2021/10/18 06:13:50;;;;;;;30.45;19.25;;;;;;;8.68;92.88;102257.53;5032389;28;20038;-73
2021/10/18 06:16:16;;;;;;;31.35;18.35;;;;;;;8.68;93.58;102264.50;5032516;28;20021;-73
2021/10/18 06:18:41;;;;;;;27.67;18.40;;;;;;;8.68;92.72;102254.91;5032563;28;20152;-73
2021/10/18 06:21:06;;;;;;;24.67;17.33;;;;;;;8.69;92.77;102256.69;5032413;28;20029;-72
2021/10/18 06:23:32;;;;;;;24.17;16.50;;;;;;;8.71;92.67;102260.28;5032489;28;20025;-71
2021/10/18 06:25:57;;;;;;;28.73;18.10;;;;;;;8.71;92.52;102264.66;5032362;28;20489;-72
2021/10/18 06:28:22;;;;;;;26.30;16.77;;;;;;;8.73;92.56;102257.75;5032490;28;20087;-73
2021/10/18 06:30:48;;;;;;;29.35;16.13;;;;;;;8.76;92.51;102255.25;5031273;28;20040;-71
2021/10/18 06:33:14;;;;;;;30.15;17.45;;;;;;;8.78;92.11;102264.09;5034350;28;20465;-73
2021/10/18 06:35:40;;;;;;;29.23;17.60;;;;;;;8.78;92.22;102257.13;5034690;28;20515;-72
2021/10/18 06:38:15;;;;;;;30.33;16.98;;;;;;;8.82;92.16;102266.03;5035870;28;20122;-72
2021/10/18 06:40:42;;;;;;;29.50;17.50;;;;;;;8.85;91.79;102274.06;5035892;28;20030;-71
2021/10/18 06:43:08;;;;;;;32.38;18.35;;;;;;;8.86;91.99;102269.72;5035740;28;20033;-71
2021/10/18 06:45:34;;;;;;;27.30;18.00;;;;;;;8.89;92.04;102273.38;5035657;28;20029;-71
2021/10/18 06:47:59;;;;;;;34.33;17.23;;;;;;;8.90;91.48;102266.41;5034304;28;20064;-72
2021/10/18 06:50:28;;;;;;;28.55;17.10;;;;;;;8.92;91.56;102270.00;5035900;28;20060;-73
2021/10/18 06:52:53;;;;;;;31.80;16.90;;;;;;;8.99;91.60;102277.31;5029813;28;20058;-73
2021/10/18 06:55:20;;;;;;;30.38;18.08;;;;;;;9.02;91.04;102268.69;5015790;28;20057;-72
2021/10/18 06:57:45;;;;;;;29.05;17.10;;;;;;;9.02;91.01;102274.84;5014367;28;20483;-72
2021/10/18 07:00:12;;;;;;;35.05;18.08;;;;;;;9.06;91.15;102274.16;5015658;28;20125;-72
2021/10/18 07:02:37;;;;;;;24.63;16.30;;;;;;;9.09;91.00;102274.28;5015657;28;20018;-72
2021/10/18 07:05:03;;;;;;;30.13;17.98;;;;;;;9.11;90.78;102266.47;5015595;28;20038;-72
2021/10/18 07:07:28;;;;;;;25.48;16.85;;;;;;;9.14;90.80;102270.97;5014406;28;20064;-73
2021/10/18 07:10:00;;;;;;;26.27;18.13;;;;;;;9.15;90.71;102278.03;5015679;28;20022;-73
2021/10/18 07:12:30;;;;;;;30.63;17.42;;;;;;;9.16;90.77;102285.97;5015470;28;20407;-73
2021/10/18 07:14:57;;;;;;;29.27;18.27;;;;;;;9.20;90.65;102295.78;5014041;28;20115;-73
2021/10/18 07:17:23;;;;;;;28.38;18.45;;;;;;;9.24;90.44;102302.09;5014144;28;20052;-73
2021/10/18 07:19:49;;;;;;;28.92;18.95;;;;;;;9.27;90.14;102304.84;5015380;28;20064;-73
2021/10/18 07:22:17;;;;;;;32.45;18.73;;;;;;;9.30;90.31;102304.97;5015297;28;20030;-72
2021/10/18 07:24:42;;;;;;;29.45;19.02;;;;;;;9.37;89.93;102311.41;5015298;28;20129;-72
2021/10/18 07:27:09;;;;;;;30.98;18.17;;;;;;;9.39;90.17;102308.03;5015129;28;20080;-73
2021/10/18 07:29:34;;;;;;;31.88;18.30;;;;;;;9.46;89.88;102306.56;5015296;28;20065;-72
2021/10/18 07:32:00;;;;;;;31.10;19.15;;;;;;;9.50;89.56;102305.88;5015110;28;20487;-71
2021/10/18 07:34:25;;;;;;;31.65;18.20;;;;;;;9.53;88.67;102307.75;5014957;28;20096;-72
2021/10/18 07:36:51;;;;;;;29.80;18.67;;;;;;;9.58;89.07;102303.59;5013734;28;20021;-72
2021/10/18 07:39:21;;;;;;;32.00;18.00;;;;;;;9.60;88.73;102302.84;5014925;28;20022;-71
2021/10/18 07:41:49;;;;;;;28.35;17.98;;;;;;;9.67;88.77;102314.53;5013600;28;20125;-73
2021/10/18 07:44:14;;;;;;;25.08;16.65;;;;;;;9.70;88.69;102316.38;5013707;28;20108;-73
2021/10/18 07:46:40;;;;;;;27.75;16.98;;;;;;;9.74;87.99;102319.22;5014767;28;20112;-73
2021/10/18 07:49:06;;;;;;;35.65;17.88;;;;;;;9.76;88.04;102322.78;5013355;28;20029;-72
2021/10/18 07:51:31;;;;;;;34.22;18.98;;;;;;;9.78;87.79;102315.88;5014641;28;20030;-72
2021/10/18 07:53:57;;;;;;;27.83;17.40;;;;;;;9.81;87.98;102316.84;5014430;28;20117;-72
2021/10/18 07:56:22;;;;;;;27.17;17.15;;;;;;;9.85;87.61;102317.06;5014587;28;20505;-72
2021/10/18 07:58:47;;;;;;;28.23;17.55;;;;;;;9.91;87.76;102321.66;5013215;28;20061;-72
2021/10/18 08:01:13;;;;;;;26.23;17.30;;;;;;;9.96;86.98;102317.50;5014443;28;20121;-73
2021/10/18 08:03:38;;;;;;;29.63;18.83;;;;;;;9.98;87.20;102304.44;5014394;28;20073;-73
2021/10/18 08:06:04;;;;;;;28.70;17.67;;;;;;;10.02;86.90;102309.88;5014512;28;20393;-72
2021/10/18 08:08:30;;;;;;;31.95;18.02;;;;;;;10.07;86.85;102305.72;5014264;28;20057;-71
2021/10/18 08:10:57;;;;;;;23.90;16.13;;;;;;;10.11;86.76;102305.00;5014280;28;20049;-71
2021/10/18 08:13:23;;;;;;;27.42;16.45;;;;;;;10.17;86.41;102298.22;5014076;28;20033;-72
2021/10/18 08:15:48;;;;;;;29.25;17.60;;;;;;;10.18;86.64;102294.75;5014284;28;20582;-72
2021/10/18 08:18:13;;;;;;;28.23;17.58;;;;;;;10.21;86.17;102305.41;5014150;28;20113;-71
2021/10/18 08:20:40;;;;;;;27.63;17.52;;;;;;;10.21;86.29;102306.28;5014155;28;20531;-72
2021/10/18 08:23:06;;;;;;;30.30;18.13;;;;;;;10.21;85.83;102290.50;5012930;28;20018;-73
2021/10/18 08:25:32;;;;;;;30.23;18.58;;;;;;;10.21;85.79;102302.75;5013996;28;20053;-73
2021/10/18 08:27:57;;;;;;;26.67;16.02;;;;;;;10.20;85.69;102293.06;5014234;28;20022;-71
2021/10/18 08:30:22;;;;;;;30.65;18.65;;;;;;;10.19;85.55;102291.28;5014207;28;20033;-71
2021/10/18 08:32:48;;;;;;;25.52;17.13;;;;;;;10.20;85.15;102288.72;5014040;28;20025;-73
2021/10/18 08:35:14;;;;;;;31.88;18.50;;;;;;;10.23;85.30;102286.22;5013839;28;20121;-72
2021/10/18 08:40:36;;;;;;;;;;;;;;;10.33;85.12;102290.09;5014269;28;20073;-73
2021/10/18 08:43:25;;;;;;;28.15;15.38;;;;;;;10.43;85.05;102287.06;5013964;28;19955;-73
2021/10/18 08:45:52;;;;;;;27.63;15.68;;;;;;;10.65;83.86;102280.03;5013782;28;20549;-71
2021/10/18 08:48:18;;;;;;;29.58;17.13;;;;;;;10.83;83.39;102271.94;5012323;28;20022;-72
2021/10/18 08:50:43;;;;;;;26.27;17.00;;;;;;;11.07;82.85;102268.44;5013736;28;20047;-72
2021/10/18 08:53:09;;;;;;;28.20;15.73;;;;;;;11.28;81.79;102256.03;5021210;28;20036;-71
2021/10/18 08:55:39;;;;;;;29.13;17.67;;;;;;;11.43;80.82;102252.19;5032900;28;20091;-73
2021/10/18 08:58:06;;;;;;;23.00;15.63;;;;;;;11.47;79.59;102244.41;5033409;28;20116;-73
2021/10/18 09:00:42;;;;;;;27.30;15.15;;;;;;;11.46;79.12;102253.19;5032527;28;20556;-71
2021/10/18 09:03:18;;;;;;;29.00;16.27;;;;;;;11.45;79.99;102261.06;5032522;28;20037;-73
2021/10/18 09:05:44;;;;;;;28.65;16.00;;;;;;;11.42;79.25;102246.03;5032167;28;20120;-73
2021/10/18 09:08:31;;;;;;;29.00;16.13;;;;;;;11.43;78.72;102250.44;5033462;28;20077;-72
2021/10/18 09:11:05;;;;;;;28.30;14.93;;;;;;;11.45;78.35;102248.75;5033319;28;20048;-73
2021/10/18 09:13:30;;;;;;;25.55;15.48;;;;;;;11.43;78.95;102239.88;5032977;28;20029;-72
2021/10/18 09:15:56;;;;;;;22.67;15.40;;;;;;;11.42;78.57;102230.22;5033133;28;20116;-71
2021/10/18 09:18:21;;;;;;;27.67;15.75;;;;;;;11.41;79.05;102225.78;5033117;28;20045;-73
2021/10/18 09:20:46;;;;;;;27.02;15.55;;;;;;;11.44;79.22;102225.88;5033071;28;20508;-72
2021/10/18 09:23:29;;;;;;;24.70;15.15;;;;;;;11.47;79.42;102225.97;5033061;28;20040;-73
2021/10/18 09:26:10;;;;;;;25.67;15.65;;;;;;;11.53;79.57;102238.50;5031577;28;20065;-72
2021/10/18 09:28:36;;;;;;;25.27;14.90;;;;;;;11.58;78.89;102233.38;5033083;28;20025;-72
2021/10/18 09:31:02;;;;;;;23.48;15.32;;;;;;;11.70;77.92;102236.44;5031684;28;20032;-73
2021/10/18 09:35:57;;;;;;;20.80;13.73;;;;;;;11.69;78.23;102253.09;5032985;28;20037;-73
2021/10/18 09:38:24;;;;;;;25.85;14.82;;;;;;;11.72;77.78;102245.31;5032824;28;20083;-72
2021/10/18 09:40:52;;;;;;;21.80;14.00;;;;;;;11.70;78.02;102254.00;5031678;28;20102;-71
2021/10/18 09:43:32;;;;;;;25.98;15.32;;;;;;;11.73;77.41;102247.06;5032741;28;20433;-73
2021/10/18 10:53:39;;;;;;;23.05;13.77;;;;;;;14.45;68.25;102156.94;5024000;28;20520;-73
2021/10/18 10:56:33;;;;;;;19.90;13.30;;;;;;;14.48;68.30;102157.00;5034364;28;20040;-73
2021/10/18 10:59:07;;;;;;;24.02;14.07;;;;;;;14.42;68.63;102162.19;5035634;28;20029;-73
2021/10/18 11:02:02;;;;;;;20.70;13.52;;;;;;;14.49;67.74;102142.91;5034451;28;20033;-73
2021/10/18 11:04:34;;;;;;;21.70;14.48;;;;;;;14.49;68.54;102137.59;5035577;28;20032;-72
2021/10/18 11:06:59;;;;;;;22.52;14.13;;;;;;;14.38;69.42;102139.13;5035273;28;20496;-72
2021/10/18 11:09:44;;;;;;;19.98;13.40;;;;;;;14.31;68.93;102134.53;5035515;28;20025;-74
2021/10/18 11:12:27;;;;;;;22.95;14.63;;;;;;;14.13;68.82;102138.59;5035261;28;20452;-70
2021/10/18 11:14:58;;;;;;;24.05;14.93;;;;;;;14.18;69.65;102143.09;5034039;28;20038;-70
2021/10/18 11:17:26;;;;;;;18.30;13.10;;;;;;;14.21;70.38;102146.69;5033904;28;20030;-72
2021/10/18 11:19:53;;;;;;;22.38;13.85;;;;;;;14.16;69.79;102140.41;5034796;28;20032;-72
2021/10/18 11:22:29;;;;;;;21.27;13.20;;;;;;;14.15;69.75;102136.88;5035362;28;20021;-73
2021/10/18 11:24:54;;;;;;;19.52;13.77;;;;;;;14.05;69.64;102136.63;5033579;28;20111;-71
2021/10/18 11:27:31;;;;;;;20.83;13.23;;;;;;;13.91;69.96;102141.59;5035004;28;20026;-73
2021/10/18 11:30:06;;;;;;;21.90;13.20;;;;;;;13.87;70.17;102135.31;5035068;28;20056;-73
2021/10/18 11:32:32;;;;;;;19.50;11.95;;;;;;;13.85;70.18;102125.56;5034761;28;20025;-72
2021/10/18 11:35:13;;;;;;;19.67;13.00;;;;;;;13.82;70.58;102114.06;5034949;28;20036;-72
2021/10/18 11:37:48;;;;;;;19.02;12.88;;;;;;;13.83;70.67;102112.31;5035108;28;20431;-73
2021/10/18 11:40:15;;;;;;;20.77;12.70;;;;;;;13.86;71.70;102107.06;5033646;28;20512;-73
2021/10/18 11:43:01;;;;;;;21.17;12.85;;;;;;;13.89;70.93;102103.59;5033389;28;20040;-73
2021/10/18 11:45:31;;;;;;;20.92;12.43;;;;;;;13.92;70.42;102095.75;5034576;28;20032;-73
2021/10/18 11:48:05;;;;;;;17.08;11.65;;;;;;;14.02;70.48;102103.03;5034794;28;20470;-72
2021/10/18 11:50:36;;;;;;;15.52;11.55;;;;;;;14.07;70.63;102090.81;5034683;28;20127;-73
2021/10/18 11:53:07;;;;;;;18.45;12.95;;;;;;;14.06;70.83;102083.72;5027803;28;20018;-72
2021/10/18 11:55:37;;;;;;;21.85;12.50;;;;;;;14.06;70.51;102085.47;5013513;28;20493;-71
2021/10/18 11:58:05;;;;;;;17.77;12.77;;;;;;;14.05;70.74;102071.34;5014768;28;20042;-72
2021/10/18 12:00:41;;;;;;;15.93;11.75;;;;;;;14.02;70.73;102071.28;5013291;28;20028;-73
2021/10/18 12:03:09;;;;;;;21.20;12.60;;;;;;;14.03;70.28;102075.72;5014519;28;20533;-73
2021/10/18 12:05:44;;;;;;;20.33;12.32;;;;;;;14.04;69.77;102074.88;5014470;28;20073;-73
2021/10/18 12:08:20;;;;;;;21.90;11.75;;;;;;;14.02;70.14;102097.75;5014546;28;20022;-73
2021/10/18 12:10:48;;;;;;;18.23;12.18;;;;;;;14.03;70.10;102093.38;5014442;28;20115;-73
2021/10/18 12:13:18;;;;;;;17.88;11.50;;;;;;;14.06;70.72;102094.31;5014140;28;20493;-71
2021/10/18 12:15:58;;;;;;;15.88;12.13;;;;;;;14.05;70.27;102076.63;5012963;28;20063;-72
2021/10/18 12:18:45;;;;;;;16.73;10.85;;;;;;;14.14;70.56;102082.13;5012935;28;20038;-72
2021/10/18 12:21:30;;;;;;;17.13;10.85;;;;;;;14.23;70.39;102093.78;5014181;28;20033;-73
2021/10/18 12:24:04;;;;;;;19.65;11.40;;;;;;;14.27;70.14;102085.03;5013662;28;20120;-72
2021/10/18 12:26:30;;;;;;;18.50;11.50;;;;;;;14.35;69.84;102083.44;5014222;28;20025;-72
2021/10/18 12:29:04;;;;;;;21.30;12.23;;;;;;;14.35;70.51;102088.72;5014132;28;20076;-72